Piercetown, Arkansas
Current Conditions -  °F | °C
As of 6:53 PM on Saturday 25 Oct 2014 (Local Time) from KHRO Reporting Station
Clear Clear  
Wind Chill: 73°   Ceiling: Unl
Heat Index: 73°   Visibility: 10mi
Dew Point: 63°   Wind: 0mph
Humidity: 71%   Direction: NA
Pressure: 30.06"   Gusts: NA
Location:  36.0047°N, 93.218°W
Report Text: KHRO 252353Z AUTO 00000KT 10SM CLR 23/17 A3006 RMK AO2 SLP166 T02280172 10294 20222 53002
Loading
Personal Weather Stations






























Interactive Weather Map
Tropical Storm Tracking
New forecast layout! Learn more

10-Day Weather Forecast

Advertisements
Track Severe Weather on mobile